Time;durP1;ratioP1;P1;durP2;ratioP2;P2;SDS_P1;SDS_P2;PMS_P1;PMS_P2;Temp;Humidity;BMP_temperature;BMP_pressure;BME280_temperature;BME280_humidity;BME280_pressure;Samples;Min_cycle;Max_cycle;Signal;HPM_P1;HPM_P2
2022/03/13 00:02:11;;;;;;;18.55;7.95;;;1.60;60.80;;;;;;4999738;28;20639;-85
2022/03/13 00:04:37;;;;;;;19.63;7.78;;;1.60;61.00;;;;;;5001225;28;20029;-88
2022/03/13 00:07:16;;;;;;;15.85;7.63;;;1.60;61.60;;;;;;4986429;28;20042;-89
2022/03/13 00:09:44;;;;;;;20.50;7.43;;;1.50;60.70;;;;;;5004447;28;20105;-90
2022/03/13 00:12:18;;;;;;;17.02;7.10;;;1.50;60.60;;;;;;5004120;28;20078;-90
2022/03/13 00:14:45;;;;;;;24.38;6.90;;;1.50;60.70;;;;;;5003373;28;20035;-81
2022/03/13 00:17:14;;;;;;;17.60;6.80;;;1.40;60.70;;;;;;5011067;28;20066;-88
2022/03/13 00:19:40;;;;;;;17.38;7.53;;;1.40;61.00;;;;;;5014327;28;20030;-88
2022/03/13 00:22:06;;;;;;;21.35;8.35;;;1.40;61.30;;;;;;5005345;28;20390;-87
2022/03/13 00:24:33;;;;;;;16.25;7.03;;;1.40;61.30;;;;;;5007190;28;20030;-88
2022/03/13 00:27:00;;;;;;;17.95;7.28;;;1.40;61.50;;;;;;5008764;28;20058;-88
2022/03/13 00:29:29;;;;;;;20.27;7.63;;;1.40;61.20;;;;;;5013742;28;20058;-88
2022/03/13 00:31:54;;;;;;;18.20;7.45;;;1.40;61.20;;;;;;5006972;28;20066;-88
2022/03/13 00:34:20;;;;;;;19.50;6.95;;;1.40;61.50;;;;;;5006781;28;20029;-89
2022/03/13 00:36:46;;;;;;;16.33;7.80;;;1.50;60.50;;;;;;5015964;28;20019;-88
2022/03/13 00:39:13;;;;;;;22.20;8.35;;;1.40;60.90;;;;;;4999653;28;20038;-88
2022/03/13 00:41:39;;;;;;;23.73;8.77;;;1.40;60.50;;;;;;5006838;28;20014;-88
2022/03/13 00:44:05;;;;;;;19.48;7.93;;;1.40;60.30;;;;;;5003516;28;20097;-88
2022/03/13 00:46:32;;;;;;;19.65;8.38;;;1.50;60.70;;;;;;5007590;28;20109;-88
2022/03/13 00:48:59;;;;;;;17.48;8.23;;;1.40;61.10;;;;;;5000713;28;20057;-86
2022/03/13 00:51:25;;;;;;;17.67;7.55;;;1.40;60.80;;;;;;5004602;28;20050;-89
2022/03/13 00:53:51;;;;;;;21.67;9.50;;;1.40;59.80;;;;;;5002994;28;20033;-88
2022/03/13 00:56:16;;;;;;;25.77;8.98;;;1.40;59.70;;;;;;5004010;28;20098;-88
2022/03/13 00:58:42;;;;;;;27.88;8.02;;;1.40;59.20;;;;;;5016988;28;20065;-87
2022/03/13 01:01:10;;;;;;;21.65;8.07;;;1.40;59.10;;;;;;5001842;28;21132;-88
2022/03/13 01:03:36;;;;;;;20.77;8.30;;;1.40;59.20;;;;;;5013533;28;20014;-88
2022/03/13 01:06:06;;;;;;;21.17;8.68;;;1.40;58.80;;;;;;4996533;28;20053;-89
2022/03/13 01:08:32;;;;;;;25.08;8.70;;;1.40;58.40;;;;;;4993747;28;20089;-89
2022/03/13 01:11:00;;;;;;;19.08;7.63;;;1.40;58.30;;;;;;5007010;28;20061;-89
2022/03/13 01:13:26;;;;;;;25.88;8.23;;;1.50;58.80;;;;;;5004345;28;20030;-88
2022/03/13 01:16:00;;;;;;;27.73;9.10;;;1.50;58.70;;;;;;5008907;28;20027;-89
2022/03/13 01:18:26;;;;;;;22.55;8.25;;;1.50;58.40;;;;;;5006135;28;20057;-88
2022/03/13 01:20:52;;;;;;;25.10;8.00;;;1.50;58.20;;;;;;4997309;28;20066;-86
2022/03/13 01:23:19;;;;;;;25.70;9.02;;;1.50;58.00;;;;;;5019960;28;20026;-86
2022/03/13 01:25:45;;;;;;;19.77;8.27;;;1.50;57.90;;;;;;5020073;28;20021;-85
2022/03/13 01:28:11;;;;;;;22.10;8.30;;;1.50;57.60;;;;;;5019525;28;20053;-87
2022/03/13 01:30:36;;;;;;;17.65;8.82;;;1.50;57.80;;;;;;5013752;28;20125;-87
2022/03/13 01:33:03;;;;;;;23.80;8.60;;;1.50;57.70;;;;;;5012035;28;20034;-87
2022/03/13 01:35:29;;;;;;;22.27;9.35;;;1.50;57.60;;;;;;5015832;28;20081;-88
2022/03/13 01:37:57;;;;;;;22.88;7.70;;;1.50;57.30;;;;;;5019663;28;20042;-88
2022/03/13 01:40:24;;;;;;;23.65;8.95;;;1.60;57.50;;;;;;5017515;28;20029;-87
2022/03/13 01:42:51;;;;;;;21.27;8.32;;;1.60;57.10;;;;;;5007418;28;20056;-86
2022/03/13 01:45:24;;;;;;;20.38;7.95;;;1.60;57.00;;;;;;5005553;28;20094;-87
2022/03/13 01:47:50;;;;;;;19.92;8.43;;;1.60;56.70;;;;;;5011002;28;20066;-87
2022/03/13 01:50:17;;;;;;;19.75;8.73;;;1.60;56.60;;;;;;5006031;28;20030;-87
2022/03/13 01:52:48;;;;;;;20.20;8.50;;;1.60;56.40;;;;;;4988431;28;20061;-87
2022/03/13 01:55:14;;;;;;;27.02;8.48;;;1.70;56.40;;;;;;5005750;28;20030;-87
2022/03/13 01:57:40;;;;;;;16.17;8.20;;;1.70;56.30;;;;;;5005887;28;20026;-88
2022/03/13 02:00:09;;;;;;;15.50;7.88;;;1.70;56.20;;;;;;5007789;28;20035;-88
2022/03/13 02:02:45;;;;;;;21.33;7.32;;;1.70;56.60;;;;;;5040201;28;20026;-85
2022/03/13 02:05:26;;;;;;;17.67;7.40;;;1.70;56.10;;;;;;5006188;28;20038;-89
2022/03/13 02:07:52;;;;;;;20.15;8.15;;;1.70;56.30;;;;;;5009246;28;20034;-83
2022/03/13 02:10:18;;;;;;;18.20;7.97;;;1.70;57.70;;;;;;5014367;28;20030;-87
2022/03/13 02:12:44;;;;;;;20.50;8.18;;;1.70;59.00;;;;;;5003008;28;20062;-88
2022/03/13 02:15:10;;;;;;;18.27;7.65;;;1.60;59.70;;;;;;5001984;28;20030;-88
2022/03/13 02:17:35;;;;;;;19.35;8.27;;;1.50;60.00;;;;;;5002856;28;20030;-87
2022/03/13 02:20:03;;;;;;;21.90;8.23;;;1.50;59.90;;;;;;5004513;28;20023;-88
2022/03/13 02:22:29;;;;;;;17.25;8.00;;;1.40;59.90;;;;;;5004387;28;20035;-87
2022/03/13 02:24:55;;;;;;;17.95;7.82;;;1.30;60.00;;;;;;5017208;28;20053;-89
2022/03/13 02:27:27;;;;;;;18.30;8.32;;;1.30;60.30;;;;;;5007593;28;20030;-89
2022/03/13 02:29:55;;;;;;;22.85;8.80;;;1.20;60.30;;;;;;5011484;28;20022;-88
2022/03/13 02:32:21;;;;;;;18.15;7.90;;;1.20;61.30;;;;;;4987557;28;20080;-88
2022/03/13 02:34:47;;;;;;;15.65;6.93;;;1.20;61.10;;;;;;5006492;28;20061;-88
2022/03/13 02:37:40;;;;;;;18.65;7.40;;;1.10;61.30;;;;;;5009728;28;20006;-88
2022/03/13 02:40:14;;;;;;;17.73;7.85;;;1.10;61.30;;;;;;5008277;28;20026;-88
2022/03/13 02:42:39;;;;;;;16.88;7.72;;;1.10;61.70;;;;;;5007799;28;20514;-87
2022/03/13 02:45:05;;;;;;;19.70;8.57;;;1.00;61.90;;;;;;5008101;28;20031;-87
2022/03/13 02:47:31;;;;;;;21.85;8.00;;;1.10;62.00;;;;;;5004950;28;20037;-88
2022/03/13 02:49:57;;;;;;;27.88;8.23;;;1.00;62.20;;;;;;5007535;28;20031;-86
2022/03/13 02:52:23;;;;;;;21.98;8.38;;;1.00;62.20;;;;;;5014896;28;20033;-87
2022/03/13 02:54:48;;;;;;;18.42;7.70;;;0.90;62.30;;;;;;5016433;28;20027;-88
2022/03/13 02:57:15;;;;;;;19.75;7.88;;;0.90;62.20;;;;;;5016429;28;20026;-86
2022/03/13 02:59:41;;;;;;;16.48;7.50;;;0.90;62.30;;;;;;5013070;28;20050;-87
2022/03/13 03:02:07;;;;;;;16.17;7.35;;;0.80;62.30;;;;;;5010968;28;20031;-88
2022/03/13 03:04:33;;;;;;;18.40;7.70;;;0.80;62.50;;;;;;4995147;28;20102;-87
2022/03/13 03:07:04;;;;;;;16.50;8.00;;;0.80;62.70;;;;;;5011446;28;20014;-86
2022/03/13 03:09:32;;;;;;;29.25;7.97;;;0.70;63.00;;;;;;5015854;28;20035;-87
2022/03/13 03:12:00;;;;;;;21.25;7.80;;;0.70;63.40;;;;;;4991817;28;20022;-87
2022/03/13 03:14:29;;;;;;;15.90;7.35;;;0.60;63.60;;;;;;5011613;28;20033;-88
2022/03/13 03:16:54;;;;;;;15.50;7.68;;;0.50;63.70;;;;;;5004913;28;20019;-88
2022/03/13 03:19:21;;;;;;;18.88;7.93;;;0.50;64.00;;;;;;5013672;28;20030;-88
2022/03/13 03:21:52;;;;;;;21.42;8.40;;;0.40;64.00;;;;;;5000154;28;20023;-86
2022/03/13 03:24:23;;;;;;;19.65;7.70;;;0.40;64.10;;;;;;5010972;28;20115;-88
2022/03/13 03:26:50;;;;;;;26.55;8.30;;;0.30;64.40;;;;;;5004419;28;20102;-87
2022/03/13 03:29:16;;;;;;;19.13;7.55;;;0.30;64.70;;;;;;5001557;28;20057;-88
2022/03/13 03:31:47;;;;;;;21.80;8.27;;;0.20;65.00;;;;;;4962699;28;1152282;-88
2022/03/13 03:34:16;;;;;;;24.58;8.68;;;0.30;65.30;;;;;;5004276;28;20093;-87
2022/03/13 03:36:50;;;;;;;24.63;8.38;;;0.20;64.80;;;;;;5004790;28;20030;-87
2022/03/13 03:39:18;;;;;;;21.23;7.95;;;0.30;64.40;;;;;;5003316;28;20030;-86
2022/03/13 03:41:45;;;;;;;19.80;8.00;;;0.30;64.50;;;;;;5012173;28;20053;-86
2022/03/13 03:44:12;;;;;;;17.10;7.95;;;0.30;64.70;;;;;;5022624;28;20038;-86
2022/03/13 03:46:40;;;;;;;20.55;8.38;;;0.20;64.80;;;;;;5023052;28;20002;-86
2022/03/13 03:49:06;;;;;;;15.30;7.53;;;0.20;64.70;;;;;;5022929;28;20082;-87
2022/03/13 03:51:31;;;;;;;19.45;8.05;;;0.20;64.60;;;;;;5021957;28;20022;-86
2022/03/13 03:54:00;;;;;;;18.95;7.85;;;0.20;64.60;;;;;;5022073;28;20022;-87
2022/03/13 03:56:26;;;;;;;19.90;8.20;;;0.20;64.60;;;;;;5021698;28;20018;-87
2022/03/13 03:58:52;;;;;;;20.98;7.78;;;0.20;64.50;;;;;;5022160;28;20046;-87
2022/03/13 04:01:18;;;;;;;16.75;7.28;;;0.20;64.50;;;;;;5021714;28;20054;-85
2022/03/13 04:03:44;;;;;;;19.85;8.30;;;0.20;64.60;;;;;;5021883;28;20081;-87
2022/03/13 04:06:10;;;;;;;24.75;8.20;;;0.20;64.40;;;;;;5020980;28;20049;-87
2022/03/13 04:08:39;;;;;;;18.63;7.55;;;0.20;64.30;;;;;;5021318;28;20019;-86
2022/03/13 04:11:08;;;;;;;18.30;7.57;;;0.20;64.20;;;;;;5021303;28;20029;-87
2022/03/13 04:13:38;;;;;;;20.33;8.38;;;0.20;64.40;;;;;;5020937;28;20083;-89
2022/03/13 04:16:08;;;;;;;17.40;7.82;;;0.20;64.80;;;;;;5019659;28;20054;-87
2022/03/13 04:18:36;;;;;;;20.38;8.20;;;0.20;64.10;;;;;;5021752;28;20041;-86
2022/03/13 04:21:03;;;;;;;18.35;8.13;;;0.30;64.10;;;;;;5021364;28;20089;-86
2022/03/13 04:23:32;;;;;;;15.80;7.22;;;0.30;64.10;;;;;;5020701;28;20098;-87
2022/03/13 04:25:57;;;;;;;21.15;8.38;;;0.30;64.00;;;;;;5020985;28;20021;-88
2022/03/13 04:28:24;;;;;;;21.85;8.68;;;0.30;63.90;;;;;;5021447;28;20022;-87
2022/03/13 04:30:59;;;;;;;18.80;8.07;;;0.30;63.50;;;;;;5019648;28;20046;-87
2022/03/13 04:33:26;;;;;;;18.83;7.78;;;0.30;63.60;;;;;;5017260;28;20038;-87
2022/03/13 04:35:54;;;;;;;16.05;7.75;;;0.30;63.60;;;;;;5019805;28;20019;-89
2022/03/13 04:38:20;;;;;;;16.77;7.93;;;0.30;63.60;;;;;;5021145;28;20102;-87
2022/03/13 04:40:46;;;;;;;19.10;8.43;;;0.20;63.40;;;;;;5000099;28;20037;-88
2022/03/13 04:43:12;;;;;;;23.05;8.38;;;0.20;63.40;;;;;;5013595;28;20057;-89
2022/03/13 04:45:37;;;;;;;17.30;8.50;;;0.20;63.40;;;;;;5011838;28;20030;-87
2022/03/13 04:48:03;;;;;;;18.08;7.50;;;0.20;63.40;;;;;;5016797;28;20027;-88
2022/03/13 04:50:29;;;;;;;15.75;7.60;;;0.20;63.70;;;;;;5018631;28;20022;-89
2022/03/13 04:52:56;;;;;;;18.77;8.20;;;0.20;64.00;;;;;;5014431;28;20042;-88
2022/03/13 04:55:21;;;;;;;17.98;8.35;;;0.20;64.40;;;;;;5012228;28;20022;-87
2022/03/13 04:57:47;;;;;;;17.98;7.65;;;0.20;64.60;;;;;;5018097;28;20034;-87
2022/03/13 05:00:14;;;;;;;19.90;7.88;;;0.10;65.00;;;;;;5020574;28;20039;-87
2022/03/13 05:02:39;;;;;;;21.13;7.72;;;0.20;65.40;;;;;;5016212;28;20037;-87
2022/03/13 05:05:06;;;;;;;20.92;7.72;;;0.10;65.70;;;;;;5018854;28;20019;-89
2022/03/13 05:07:32;;;;;;;17.95;7.88;;;0.10;65.70;;;;;;5020615;28;20133;-87
2022/03/13 05:09:59;;;;;;;22.15;8.93;;;0.10;65.90;;;;;;5002067;28;20014;-89
2022/03/13 05:12:27;;;;;;;17.67;8.85;;;0.10;66.60;;;;;;4998092;28;20034;-87
2022/03/13 05:14:53;;;;;;;20.88;8.20;;;0.10;66.10;;;;;;4992493;28;20030;-87
2022/03/13 05:17:19;;;;;;;21.55;8.35;;;0.10;66.00;;;;;;5010947;28;20386;-89
2022/03/13 05:19:45;;;;;;;18.70;7.97;;;0.00;65.70;;;;;;5011648;28;20022;-87
2022/03/13 05:22:11;;;;;;;16.83;7.88;;;0.10;65.80;;;;;;5015320;28;20036;-87
2022/03/13 05:24:37;;;;;;;18.08;8.52;;;0.00;65.70;;;;;;5000914;28;20039;-87
2022/03/13 05:27:03;;;;;;;17.90;8.23;;;0.00;65.70;;;;;;5017272;28;20031;-88
2022/03/13 05:29:29;;;;;;;20.58;9.05;;;0.00;66.30;;;;;;5010572;28;20031;-86
2022/03/13 05:31:55;;;;;;;21.67;8.68;;;0.00;66.40;;;;;;5054717;23;20060;-85
2022/03/13 05:34:20;;;;;;;18.60;7.90;;;0.00;66.50;;;;;;5075441;28;20036;-83
2022/03/13 05:36:46;;;;;;;19.58;7.95;;;0.00;66.70;;;;;;5075557;28;20033;-85
2022/03/13 05:39:12;;;;;;;20.85;8.63;;;0.00;66.60;;;;;;5059114;28;20021;-84
2022/03/13 05:41:39;;;;;;;18.42;8.50;;;0.10;66.80;;;;;;5068422;28;20029;-84
2022/03/13 05:44:09;;;;;;;27.23;8.55;;;0.10;66.80;;;;;;5053920;28;20026;-84
2022/03/13 05:46:36;;;;;;;15.55;8.00;;;0.10;66.20;;;;;;5048432;28;20044;-84
2022/03/13 05:49:02;;;;;;;19.42;7.93;;;0.10;66.00;;;;;;5050758;28;20029;-85
2022/03/13 05:51:30;;;;;;;24.50;8.85;;;0.10;65.90;;;;;;5057573;28;20037;-86
2022/03/13 05:53:58;;;;;;;23.30;9.13;;;0.20;65.90;;;;;;5051376;28;20029;-84
2022/03/13 05:56:24;;;;;;;17.92;8.10;;;0.20;65.70;;;;;;5055534;28;20090;-84
2022/03/13 05:58:49;;;;;;;21.27;8.30;;;0.30;65.50;;;;;;5053025;28;20045;-85
2022/03/13 06:01:15;;;;;;;20.85;8.48;;;0.40;65.30;;;;;;5051925;28;20029;-84
2022/03/13 06:03:42;;;;;;;21.55;8.43;;;0.40;65.00;;;;;;5051779;28;20053;-84
2022/03/13 06:06:08;;;;;;;20.83;8.75;;;0.40;65.00;;;;;;5051588;28;20093;-86
2022/03/13 06:08:34;;;;;;;16.98;8.32;;;0.40;65.10;;;;;;5050934;28;20017;-83
2022/03/13 06:11:00;;;;;;;16.38;8.05;;;0.50;65.20;;;;;;5051998;28;20031;-84
2022/03/13 06:13:25;;;;;;;18.48;8.48;;;0.60;65.20;;;;;;5055920;28;20027;-84
2022/03/13 06:15:51;;;;;;;17.70;8.07;;;0.60;65.20;;;;;;5059125;28;20085;-84
2022/03/13 06:18:17;;;;;;;19.75;8.05;;;0.60;65.20;;;;;;5058366;28;20060;-85
2022/03/13 06:20:43;;;;;;;18.50;8.57;;;0.70;65.10;;;;;;5057692;28;20029;-84
2022/03/13 06:23:11;;;;;;;18.58;8.60;;;0.80;64.80;;;;;;5057961;28;20033;-83
2022/03/13 06:25:37;;;;;;;18.90;8.32;;;0.90;64.70;;;;;;5058158;28;20032;-83
2022/03/13 06:28:03;;;;;;;19.40;8.77;;;0.90;64.30;;;;;;5059104;28;20013;-83
2022/03/13 06:30:30;;;;;;;15.95;8.50;;;1.00;64.30;;;;;;5058957;28;20049;-84
2022/03/13 06:32:56;;;;;;;18.15;8.18;;;1.10;64.10;;;;;;5058727;28;20033;-83
2022/03/13 06:35:23;;;;;;;18.48;8.75;;;1.20;64.10;;;;;;5058994;28;20025;-84
2022/03/13 06:37:49;;;;;;;22.67;8.30;;;1.30;63.90;;;;;;5058178;28;20014;-82
2022/03/13 06:40:17;;;;;;;21.08;8.45;;;1.30;63.70;;;;;;5057985;28;20108;-83
2022/03/13 06:42:45;;;;;;;16.55;7.90;;;1.40;63.50;;;;;;5041185;28;20044;-83
2022/03/13 06:45:12;;;;;;;27.73;8.75;;;1.50;63.80;;;;;;5052000;28;20072;-84
2022/03/13 06:47:44;;;;;;;19.00;8.00;;;1.50;63.90;;;;;;5045085;28;20028;-84
2022/03/13 06:50:10;;;;;;;18.63;8.65;;;1.70;63.70;;;;;;5042149;28;20075;-83
2022/03/13 06:52:37;;;;;;;18.00;8.32;;;1.80;63.70;;;;;;5044534;28;20025;-85
2022/03/13 06:55:04;;;;;;;18.42;8.07;;;1.80;63.30;;;;;;5045190;28;20231;-85
2022/03/13 06:57:30;;;;;;;17.73;8.25;;;1.90;63.00;;;;;;5052570;28;20002;-85
2022/03/13 06:59:57;;;;;;;20.67;9.30;;;2.00;63.10;;;;;;5040566;28;20021;-84
2022/03/13 07:02:24;;;;;;;20.70;9.15;;;2.10;63.10;;;;;;5057312;28;20041;-84
2022/03/13 07:04:50;;;;;;;18.38;8.73;;;2.20;62.90;;;;;;5056092;28;20033;-84
2022/03/13 07:07:15;;;;;;;18.83;8.98;;;2.20;63.00;;;;;;5054815;28;20036;-84
2022/03/13 07:09:41;;;;;;;16.98;8.57;;;2.30;63.10;;;;;;5057842;28;20117;-85
2022/03/13 07:12:11;;;;;;;20.23;8.30;;;2.30;62.80;;;;;;5057457;28;20037;-84
2022/03/13 07:14:46;;;;;;;21.63;9.00;;;2.40;62.60;;;;;;5051820;28;20045;-85
2022/03/13 07:17:13;;;;;;;22.00;8.95;;;2.40;62.20;;;;;;5056209;28;20017;-85
2022/03/13 07:19:43;;;;;;;19.85;8.63;;;2.50;61.90;;;;;;5054176;28;20013;-85
2022/03/13 07:22:10;;;;;;;20.50;8.95;;;2.60;62.10;;;;;;5051920;28;20141;-84
2022/03/13 07:24:36;;;;;;;20.10;9.48;;;2.60;61.50;;;;;;5055671;28;20018;-84
2022/03/13 07:27:03;;;;;;;16.63;8.23;;;2.70;61.30;;;;;;5053946;28;20044;-84
2022/03/13 07:29:28;;;;;;;21.88;9.23;;;2.80;61.20;;;;;;5053013;28;20017;-86
2022/03/13 07:31:56;;;;;;;20.92;9.35;;;2.80;60.10;;;;;;5056832;28;20048;-83
2022/03/13 07:34:26;;;;;;;17.65;8.48;;;2.80;59.70;;;;;;5057509;28;20021;-84
2022/03/13 07:36:52;;;;;;;20.83;8.88;;;2.90;59.70;;;;;;5057571;28;20077;-85
2022/03/13 07:39:19;;;;;;;22.75;9.55;;;3.10;59.50;;;;;;5057860;28;20032;-84
2022/03/13 07:41:45;;;;;;;17.85;8.35;;;3.10;59.50;;;;;;5057666;28;20033;-84
2022/03/13 07:44:11;;;;;;;16.10;8.50;;;3.30;59.50;;;;;;5057488;28;20002;-84
2022/03/13 07:46:37;;;;;;;18.75;8.88;;;3.30;59.10;;;;;;5057377;28;20021;-83
2022/03/13 07:49:03;;;;;;;16.95;8.13;;;3.40;59.00;;;;;;5057496;28;20017;-84
2022/03/13 07:51:30;;;;;;;19.63;8.57;;;3.50;58.60;;;;;;5057116;28;20014;-86
2022/03/13 07:53:56;;;;;;;17.08;8.32;;;3.60;58.70;;;;;;5057073;28;20018;-83
2022/03/13 07:56:23;;;;;;;17.77;8.35;;;3.60;58.90;;;;;;5057755;28;20013;-84
2022/03/13 07:58:49;;;;;;;17.45;8.52;;;3.60;58.80;;;;;;5057617;28;20032;-84
2022/03/13 08:01:15;;;;;;;17.85;8.60;;;3.80;59.00;;;;;;5057161;28;20025;-84
2022/03/13 08:03:44;;;;;;;17.20;8.55;;;3.90;58.40;;;;;;5057695;28;20017;-84
2022/03/13 08:06:10;;;;;;;15.23;7.75;;;3.90;58.00;;;;;;5056741;28;20018;-84
2022/03/13 08:08:36;;;;;;;17.60;8.10;;;3.90;57.70;;;;;;5057508;28;20018;-86
2022/03/13 08:11:03;;;;;;;20.10;8.82;;;4.00;57.60;;;;;;5057490;28;20052;-83
2022/03/13 08:13:28;;;;;;;14.90;7.45;;;4.20;57.80;;;;;;5057560;28;20032;-83
2022/03/13 08:15:54;;;;;;;20.10;8.43;;;4.30;57.50;;;;;;5057725;28;20041;-84
2022/03/13 08:18:20;;;;;;;17.17;8.82;;;4.30;58.40;;;;;;5057494;28;20052;-83
2022/03/13 08:20:52;;;;;;;16.38;7.97;;;4.40;57.60;;;;;;5057583;28;20032;-86
2022/03/13 08:23:18;;;;;;;16.02;7.40;;;4.50;57.70;;;;;;5057016;28;20025;-87
2022/03/13 08:25:44;;;;;;;20.65;8.35;;;4.60;58.20;;;;;;5055904;28;20061;-86
2022/03/13 08:28:09;;;;;;;17.95;7.97;;;4.70;57.30;;;;;;5046559;28;20025;-87
2022/03/13 08:30:35;;;;;;;16.42;8.30;;;4.80;57.20;;;;;;5035981;28;20036;-87
2022/03/13 08:33:02;;;;;;;16.85;8.30;;;4.80;56.60;;;;;;5060511;28;20021;-86
2022/03/13 08:35:29;;;;;;;16.15;8.27;;;4.90;56.00;;;;;;5060124;28;20076;-85
2022/03/13 08:37:55;;;;;;;16.48;7.85;;;5.00;55.70;;;;;;5060252;28;20057;-86
2022/03/13 08:40:25;;;;;;;20.35;8.73;;;5.00;54.80;;;;;;5043578;28;20029;-86
2022/03/13 08:42:51;;;;;;;19.20;8.73;;;5.00;54.90;;;;;;5059853;28;20014;-86
2022/03/13 08:45:17;;;;;;;19.27;8.13;;;5.00;54.90;;;;;;5039287;28;20107;-87
2022/03/13 08:47:43;;;;;;;17.98;8.48;;;5.10;54.90;;;;;;5060344;28;20138;-88
2022/03/13 08:50:10;;;;;;;19.17;9.10;;;5.20;54.90;;;;;;5060246;28;20040;-87
2022/03/13 08:52:36;;;;;;;17.80;8.23;;;5.30;55.00;;;;;;5060060;28;20086;-86
2022/03/13 08:55:03;;;;;;;18.80;7.82;;;5.30;54.40;;;;;;5060136;28;20065;-86
2022/03/13 08:57:29;;;;;;;22.90;8.70;;;5.40;54.10;;;;;;5060433;28;20016;-86
2022/03/13 08:59:55;;;;;;;18.48;8.32;;;5.40;54.00;;;;;;5059886;28;20033;-86
2022/03/13 09:02:22;;;;;;;16.67;8.20;;;5.50;54.30;;;;;;5059240;28;20017;-87
2022/03/13 09:04:51;;;;;;;16.73;8.52;;;5.70;54.00;;;;;;5059501;28;20018;-87
2022/03/13 09:07:17;;;;;;;18.52;8.80;;;6.00;53.20;;;;;;5059820;28;20030;-85
2022/03/13 09:09:43;;;;;;;19.48;8.82;;;6.20;53.00;;;;;;5060371;28;20029;-86
2022/03/13 09:12:10;;;;;;;17.42;7.80;;;6.60;52.50;;;;;;5059407;28;20077;-87
2022/03/13 09:14:38;;;;;;;19.58;7.70;;;6.90;52.30;;;;;;5042939;28;20037;-87
2022/03/13 09:17:04;;;;;;;16.98;8.32;;;7.50;51.60;;;;;;5059984;28;20025;-87
2022/03/13 09:19:30;;;;;;;18.33;8.05;;;7.90;50.70;;;;;;5058737;28;20044;-86
2022/03/13 09:21:55;;;;;;;17.42;8.38;;;8.50;50.50;;;;;;5042619;28;20036;-86
2022/03/13 09:24:21;;;;;;;15.43;8.95;;;9.20;49.60;;;;;;5058179;28;20049;-87
2022/03/13 09:26:47;;;;;;;19.35;9.82;;;9.50;48.30;;;;;;5042904;28;20040;-87
2022/03/13 09:29:14;;;;;;;20.10;9.73;;;10.20;48.10;;;;;;5059539;28;20014;-86
2022/03/13 09:31:39;;;;;;;22.88;9.38;;;10.60;47.30;;;;;;5058823;28;20022;-87
2022/03/13 09:34:05;;;;;;;21.00;9.57;;;11.10;46.70;;;;;;5058977;28;20041;-87
2022/03/13 09:36:36;;;;;;;21.17;10.10;;;12.00;45.50;;;;;;5059098;28;20045;-85
2022/03/13 09:39:06;;;;;;;14.98;8.60;;;12.30;44.70;;;;;;5059156;28;20045;-85
2022/03/13 09:41:32;;;;;;;17.58;8.57;;;12.60;44.50;;;;;;5059510;28;20061;-87
2022/03/13 09:43:58;;;;;;;25.23;9.73;;;12.70;44.10;;;;;;5059046;28;20017;-87
2022/03/13 09:46:24;;;;;;;19.13;9.38;;;13.60;44.10;;;;;;5059761;28;20022;-89
2022/03/13 09:48:53;;;;;;;15.02;9.10;;;13.80;42.90;;;;;;5059218;28;20061;-87
2022/03/13 09:51:19;;;;;;;17.48;8.70;;;13.90;43.60;;;;;;5058795;28;20013;-86
2022/03/13 09:53:44;;;;;;;16.52;8.55;;;13.90;43.00;;;;;;5059827;28;20018;-87
2022/03/13 09:56:10;;;;;;;18.17;9.68;;;14.40;42.90;;;;;;5058727;28;20037;-88
2022/03/13 09:58:36;;;;;;;17.00;9.70;;;14.20;42.80;;;;;;5058370;28;20129;-86
2022/03/13 10:01:09;;;;;;;15.85;9.43;;;14.30;42.50;;;;;;5054336;28;20033;-88
2022/03/13 10:03:36;;;;;;;15.10;8.40;;;15.10;42.00;;;;;;5049724;28;20040;-88
2022/03/13 10:06:02;;;;;;;23.30;8.98;;;15.60;41.20;;;;;;5057715;28;20032;-87
2022/03/13 10:08:30;;;;;;;16.73;8.23;;;15.80;40.90;;;;;;5057017;28;20029;-87
2022/03/13 10:10:56;;;;;;;17.13;8.98;;;16.00;40.70;;;;;;5057414;28;20006;-86
2022/03/13 10:13:41;;;;;;;19.02;8.93;;;15.90;40.40;;;;;;5056036;28;20025;-87
2022/03/13 10:16:14;;;;;;;13.10;8.57;;;15.80;40.40;;;;;;5037245;28;20041;-87
2022/03/13 10:18:42;;;;;;;14.60;8.48;;;16.70;40.00;;;;;;5053833;28;20018;-86
2022/03/13 10:21:14;;;;;;;17.02;8.27;;;16.80;39.60;;;;;;5081801;28;20016;-85
2022/03/13 10:23:42;;;;;;;14.18;8.30;;;16.50;39.40;;;;;;5053909;28;20022;-85
2022/03/13 10:26:08;;;;;;;14.15;8.48;;;16.50;39.60;;;;;;5055351;28;20020;-86
2022/03/13 10:28:40;;;;;;;13.90;8.25;;;16.90;39.50;;;;;;5040399;28;20081;-85
2022/03/13 10:31:17;;;;;;;12.98;8.02;;;16.70;39.60;;;;;;5053124;28;20044;-87
2022/03/13 10:33:42;;;;;;;13.50;7.60;;;16.90;39.40;;;;;;5053755;28;20029;-87
2022/03/13 10:36:16;;;;;;;14.82;8.02;;;17.50;39.20;;;;;;5055500;28;20041;-86
2022/03/13 10:38:43;;;;;;;14.25;8.23;;;17.90;38.60;;;;;;5056594;28;20053;-87
2022/03/13 10:41:09;;;;;;;17.95;9.00;;;17.20;38.70;;;;;;5056472;28;20032;-87
2022/03/13 10:43:52;;;;;;;17.25;9.10;;;17.20;38.90;;;;;;5053011;28;20033;-88
2022/03/13 10:46:31;;;;;;;17.38;8.93;;;17.50;38.50;;;;;;5042726;28;20049;-87
2022/03/13 10:48:58;;;;;;;17.30;8.48;;;16.90;38.30;;;;;;5037578;28;20029;-87
2022/03/13 10:51:45;;;;;;;16.63;9.30;;;17.30;37.80;;;;;;5034390;28;20321;-86
2022/03/13 10:54:37;;;;;;;13.68;8.30;;;16.90;38.10;;;;;;5056790;28;20098;-87
2022/03/13 10:57:12;;;;;;;19.27;9.57;;;17.70;37.90;;;;;;5038650;28;20025;-86
2022/03/13 10:59:43;;;;;;;16.08;10.07;;;18.20;37.80;;;;;;5055493;28;20096;-85
2022/03/13 11:02:18;;;;;;;16.95;8.90;;;18.00;37.00;;;;;;5056304;28;20039;-86
2022/03/13 11:04:57;;;;;;;14.10;8.38;;;17.70;37.40;;;;;;5037394;28;20020;-87
2022/03/13 11:07:27;;;;;;;17.08;8.70;;;18.20;37.40;;;;;;5048190;28;20033;-87
2022/03/13 11:09:54;;;;;;;14.32;9.70;;;18.10;37.40;;;;;;5047382;28;20044;-88
2022/03/13 11:12:23;;;;;;;17.70;9.90;;;18.70;36.90;;;;;;5045611;28;20041;-88
2022/03/13 11:14:55;;;;;;;15.43;8.77;;;19.40;36.50;;;;;;5011645;28;20041;-89
2022/03/13 11:17:25;;;;;;;13.80;8.27;;;19.10;37.10;;;;;;5044244;28;20026;-87
2022/03/13 11:19:53;;;;;;;14.40;8.48;;;18.90;37.40;;;;;;5027862;28;20033;-89
2022/03/13 11:22:20;;;;;;;12.07;8.20;;;19.20;37.20;;;;;;5046574;28;20033;-88
2022/03/13 11:24:50;;;;;;;14.57;9.35;;;19.50;37.30;;;;;;5042020;28;20021;-87
2022/03/13 11:27:17;;;;;;;13.32;8.00;;;19.20;37.00;;;;;;5048705;28;20061;-88
2022/03/13 11:29:52;;;;;;;17.70;10.75;;;19.40;37.50;;;;;;5054354;28;20056;-87
2022/03/13 11:32:40;;;;;;;14.38;8.68;;;19.60;36.70;;;;;;5055663;28;20021;-87
2022/03/13 11:37:39;;;;;;;21.08;9.80;;;19.20;37.60;;;;;;5045507;28;20022;-85
2022/03/13 11:40:07;;;;;;;15.98;9.63;;;19.40;37.10;;;;;;5045548;28;20018;-85
2022/03/13 11:42:47;;;;;;;16.52;10.40;;;19.30;37.30;;;;;;5029038;28;20013;-86
2022/03/13 11:45:33;;;;;;;15.98;9.68;;;19.30;37.00;;;;;;5027635;28;20036;-85
2022/03/13 11:48:05;;;;;;;13.25;8.25;;;19.10;37.60;;;;;;5046898;28;20057;-86
2022/03/13 11:50:51;;;;;;;21.30;9.02;;;18.70;37.40;;;;;;5035007;28;20025;-87
2022/03/13 11:53:18;;;;;;;15.88;9.50;;;18.70;37.50;;;;;;5036685;28;20489;-85
2022/03/13 11:55:59;;;;;;;16.45;9.40;;;18.80;37.40;;;;;;5034649;28;20582;-86
2022/03/13 11:59:07;;;;;;;15.00;8.88;;;19.70;36.90;;;;;;5036013;28;20017;-87
2022/03/13 12:01:37;;;;;;;16.08;8.85;;;20.00;36.40;;;;;;5019475;28;20030;-85
2022/03/13 12:04:04;;;;;;;16.63;8.98;;;19.60;36.90;;;;;;5045924;28;20018;-85
2022/03/13 12:06:46;;;;;;;16.52;8.55;;;20.00;36.80;;;;;;5026828;28;20018;-86
2022/03/13 12:09:25;;;;;;;20.30;10.25;;;20.40;36.90;;;;;;5027940;28;20065;-84
2022/03/13 12:12:01;;;;;;;16.40;9.95;;;20.70;36.30;;;;;;5047381;28;20485;-87
2022/03/13 12:15:03;;;;;;;22.23;10.07;;;19.90;36.30;;;;;;5027074;28;20048;-85
2022/03/13 12:17:42;;;;;;;17.17;9.43;;;19.60;36.30;;;;;;5045479;28;20086;-86
2022/03/13 12:20:08;;;;;;;15.63;9.20;;;19.20;36.20;;;;;;5009238;28;20038;-87
2022/03/13 12:22:35;;;;;;;16.17;9.50;;;19.80;36.10;;;;;;5016950;28;20044;-85
2022/03/13 12:25:03;;;;;;;12.32;8.48;;;20.10;36.20;;;;;;5038419;28;20069;-86
2022/03/13 12:27:29;;;;;;;18.77;8.80;;;20.40;36.80;;;;;;5034007;28;20030;-86
2022/03/13 12:29:58;;;;;;;19.55;10.18;;;20.70;36.00;;;;;;5031596;28;20037;-87
2022/03/13 12:32:29;;;;;;;18.60;10.07;;;21.00;35.40;;;;;;5031660;28;20033;-89
2022/03/13 12:34:56;;;;;;;14.52;9.15;;;21.10;34.80;;;;;;5014868;28;20030;-86
2022/03/13 12:37:22;;;;;;;15.15;8.00;;;21.20;34.90;;;;;;5013544;28;20037;-85
2022/03/13 12:39:55;;;;;;;13.27;8.35;;;21.40;34.80;;;;;;5030304;28;20049;-85
2022/03/13 12:42:23;;;;;;;13.25;8.35;;;21.40;34.70;;;;;;5013559;28;20055;-86
2022/03/13 12:45:12;;;;;;;16.25;7.90;;;21.20;34.80;;;;;;5028327;28;20037;-86
2022/03/13 12:47:42;;;;;;;15.13;7.93;;;21.10;34.60;;;;;;5031562;28;20049;-87
2022/03/13 12:50:11;;;;;;;15.93;9.00;;;21.10;34.20;;;;;;5015269;28;20060;-86
2022/03/13 12:52:39;;;;;;;14.43;8.82;;;21.10;34.40;;;;;;5029604;28;20022;-86